createdAt,value
2018-05-23T00:01:06.450Z,22.50
2018-05-23T00:03:33.991Z,22.50
2018-05-23T00:06:01.546Z,22.40
2018-05-23T00:08:29.082Z,22.50
2018-05-23T00:10:56.644Z,22.40
2018-05-23T00:13:24.950Z,22.40
2018-05-23T00:15:52.528Z,22.30
2018-05-23T00:18:20.059Z,22.40
2018-05-23T00:20:47.630Z,22.30
2018-05-23T00:23:15.174Z,22.30
2018-05-23T00:25:42.739Z,22.20
2018-05-23T00:28:10.282Z,22.20
2018-05-23T00:30:38.601Z,22.20
2018-05-23T00:33:06.136Z,22.20
2018-05-23T00:35:33.696Z,22.20
2018-05-23T00:38:01.230Z,22.10
2018-05-23T00:40:29.550Z,22.10
2018-05-23T00:42:57.096Z,22.00
2018-05-23T00:45:24.665Z,22.00
2018-05-23T00:47:52.207Z,22.00
2018-05-23T00:50:19.797Z,22.00
2018-05-23T00:52:48.112Z,22.00
2018-05-23T00:55:27.600Z,21.90
2018-05-23T00:57:55.142Z,21.90
2018-05-23T01:00:22.680Z,21.90
2018-05-23T01:02:51.007Z,21.90
2018-05-23T01:05:18.541Z,21.90
2018-05-23T01:07:46.101Z,21.80
2018-05-23T01:10:13.642Z,21.80
2018-05-23T01:12:41.966Z,21.70
2018-05-23T01:15:09.506Z,21.70
2018-05-23T01:17:37.075Z,21.70
2018-05-23T01:20:04.615Z,21.70
2018-05-23T01:22:32.179Z,21.70
2018-05-23T01:24:59.727Z,21.70
2018-05-23T01:27:28.056Z,21.60
2018-05-23T01:29:55.597Z,21.60
2018-05-23T01:32:23.168Z,21.60
2018-05-23T01:34:50.712Z,21.50
2018-05-23T01:37:18.272Z,21.50
2018-05-23T01:39:45.815Z,21.50
2018-05-23T01:42:14.150Z,21.40
2018-05-23T01:44:41.696Z,21.40
2018-05-23T01:47:09.262Z,21.40
2018-05-23T01:49:36.802Z,21.40
2018-05-23T01:52:04.368Z,21.40
2018-05-23T01:54:31.928Z,21.30
2018-05-23T01:56:59.495Z,21.30
2018-05-23T01:59:27.029Z,21.30
2018-05-23T02:01:54.606Z,21.30
2018-05-23T02:04:22.156Z,21.30
2018-05-23T02:06:49.722Z,21.30
2018-05-23T02:09:17.268Z,21.20
2018-05-23T02:11:44.843Z,21.20
2018-05-23T02:14:12.398Z,21.20
2018-05-23T02:16:39.973Z,21.10
2018-05-23T02:19:07.510Z,21.10
2018-05-23T02:21:35.070Z,21.10
2018-05-23T02:24:02.620Z,21.10
2018-05-23T02:26:30.191Z,21.10
2018-05-23T02:28:57.752Z,21.00
2018-05-23T02:31:25.311Z,21.00
2018-05-23T02:33:52.856Z,21.00
2018-05-23T02:36:20.421Z,20.90
2018-05-23T02:38:47.951Z,20.90
2018-05-23T02:41:16.277Z,20.90
2018-05-23T02:43:43.819Z,20.90
2018-05-23T02:46:17.094Z,20.90
2018-05-23T02:48:45.400Z,20.90
2018-05-23T02:51:12.955Z,20.80
2018-05-23T02:53:40.516Z,20.80
2018-05-23T02:56:08.059Z,20.80
2018-05-23T02:58:36.389Z,20.70
2018-05-23T03:01:03.934Z,20.70
2018-05-23T03:03:31.495Z,20.70
2018-05-23T03:05:59.042Z,20.70
2018-05-23T03:08:26.623Z,20.70
2018-05-23T03:10:54.159Z,20.60
2018-05-23T03:13:21.723Z,20.60
2018-05-23T03:15:49.262Z,20.60
2018-05-23T03:18:17.582Z,20.50
2018-05-23T03:20:45.119Z,20.50
2018-05-23T03:23:12.690Z,20.50
2018-05-23T03:25:40.233Z,20.50
2018-05-23T03:28:07.789Z,20.50
2018-05-23T03:30:35.327Z,20.50
2018-05-23T03:33:03.658Z,20.40
2018-05-23T03:35:31.328Z,20.40
2018-05-23T03:37:58.887Z,20.40
2018-05-23T03:40:26.430Z,20.40
2018-05-23T03:42:53.990Z,20.40
2018-05-23T03:45:21.530Z,20.30
2018-05-23T03:47:49.096Z,20.30
2018-05-23T03:50:16.650Z,20.30
2018-05-23T03:52:44.215Z,20.30
2018-05-23T03:55:11.765Z,20.20
2018-05-23T03:57:39.334Z,20.20
2018-05-23T04:00:18.777Z,20.20
2018-05-23T04:02:58.193Z,20.20
2018-05-23T04:05:38.631Z,20.10
2018-05-23T04:08:06.136Z,20.10
2018-05-23T04:10:33.669Z,20.10
2018-05-23T04:13:01.998Z,20.10
2018-05-23T04:15:29.599Z,20.00
2018-05-23T04:17:57.140Z,20.00
2018-05-23T04:20:24.685Z,20.00
2018-05-23T04:22:52.247Z,20.00
2018-05-23T04:25:19.890Z,20.00
2018-05-23T04:27:47.447Z,20.00
2018-05-23T04:30:14.986Z,20.00
2018-05-23T04:32:42.552Z,19.90
2018-05-23T04:35:10.102Z,19.90
2018-05-23T04:37:37.670Z,19.90
2018-05-23T04:40:05.234Z,19.90
2018-05-23T04:42:32.769Z,19.80
2018-05-23T04:45:01.099Z,19.80
2018-05-23T04:47:28.640Z,19.80
2018-05-23T04:49:56.209Z,19.80
2018-05-23T04:52:23.753Z,19.80
2018-05-23T04:54:51.315Z,19.80
2018-05-23T04:57:18.863Z,19.80
2018-05-23T04:59:46.429Z,19.80
2018-05-23T05:02:13.972Z,19.80
2018-05-23T05:04:42.388Z,19.80
2018-05-23T05:07:09.936Z,19.80
2018-05-23T05:09:37.500Z,19.80
2018-05-23T05:12:05.044Z,19.80
2018-05-23T05:14:32.606Z,19.80
2018-05-23T05:17:00.279Z,19.80
2018-05-23T05:19:27.854Z,19.80
2018-05-23T05:21:55.394Z,19.80
2018-05-23T05:24:22.967Z,19.80
2018-05-23T05:26:50.497Z,19.80
2018-05-23T05:29:18.826Z,19.80
2018-05-23T05:31:46.385Z,19.80
2018-05-23T05:34:13.950Z,19.70
2018-05-23T05:36:41.500Z,19.70
2018-05-23T05:39:09.064Z,19.70
2018-05-23T05:41:36.610Z,19.70
2018-05-23T05:44:04.203Z,19.70
2018-05-23T05:46:31.742Z,19.70
2018-05-23T05:48:59.304Z,19.70
2018-05-23T05:51:26.847Z,19.70
2018-05-23T05:53:54.407Z,19.70
2018-05-23T05:56:26.780Z,19.60
2018-05-23T05:58:56.930Z,18.80
2018-05-23T06:01:24.483Z,18.80
2018-05-23T06:03:52.050Z,18.80
2018-05-23T06:06:19.598Z,18.90
2018-05-23T06:08:47.180Z,19.00
2018-05-23T06:11:14.728Z,19.00
2018-05-23T06:13:42.290Z,19.00
2018-05-23T06:16:09.843Z,19.00
2018-05-23T06:18:37.409Z,19.00
2018-05-23T06:21:05.047Z,19.00
2018-05-23T06:23:32.614Z,19.00
2018-05-23T06:26:00.189Z,19.00
2018-05-23T06:28:28.450Z,18.90
2018-05-23T06:30:56.218Z,19.00
2018-05-23T06:33:24.690Z,19.00
2018-05-23T06:35:52.258Z,18.90
2018-05-23T06:38:19.798Z,19.00
2018-05-23T06:40:47.373Z,18.90
2018-05-23T06:43:14.922Z,18.90
2018-05-23T06:45:42.492Z,18.90
2018-05-23T06:48:10.031Z,18.90
2018-05-23T06:50:37.593Z,18.90
2018-05-23T06:53:05.148Z,18.90
2018-05-23T06:55:32.802Z,18.90
2018-05-23T06:58:00.294Z,18.90
2018-05-23T07:00:27.854Z,18.90
2018-05-23T07:02:55.402Z,18.90
2018-05-23T07:05:22.972Z,18.90
2018-05-23T07:07:50.537Z,18.90
2018-05-23T07:10:18.107Z,18.90
2018-05-23T07:12:45.651Z,18.90
2018-05-23T07:15:13.219Z,18.90
2018-05-23T07:17:40.760Z,18.90
2018-05-23T07:20:08.314Z,18.90
2018-05-23T07:22:35.853Z,18.90
2018-05-23T07:25:04.204Z,18.90
2018-05-23T07:27:31.734Z,18.90
2018-05-23T07:29:59.306Z,18.90
2018-05-23T07:32:26.863Z,18.90
2018-05-23T07:34:54.433Z,19.00
2018-05-23T07:37:21.995Z,18.90
2018-05-23T07:39:49.568Z,19.00
2018-05-23T07:42:17.121Z,18.90
2018-05-23T07:44:44.686Z,19.00
2018-05-23T07:47:12.246Z,19.00
2018-05-23T07:49:39.823Z,19.00
2018-05-23T07:52:07.369Z,19.00
2018-05-23T07:54:34.941Z,19.00
2018-05-23T07:57:02.487Z,19.10
2018-05-23T07:59:30.061Z,19.10
2018-05-23T08:01:57.595Z,19.10
2018-05-23T08:04:25.151Z,19.10
2018-05-23T08:06:52.692Z,19.10
2018-05-23T08:09:20.263Z,19.10
2018-05-23T08:11:47.811Z,19.10
2018-05-23T08:14:15.392Z,19.10
2018-05-23T08:16:42.932Z,19.10
2018-05-23T08:19:10.492Z,19.20
2018-05-23T08:21:38.038Z,19.20
2018-05-23T08:24:05.590Z,19.20
2018-05-23T08:26:33.161Z,19.20
2018-05-23T08:29:00.707Z,19.20
2018-05-23T08:31:29.040Z,19.30
2018-05-23T08:33:56.596Z,19.30
2018-05-23T08:36:24.204Z,19.30
2018-05-23T08:38:51.764Z,19.30
2018-05-23T08:41:20.102Z,19.40
2018-05-23T08:43:47.646Z,19.40
2018-05-23T08:46:15.206Z,19.40
2018-05-23T08:48:42.750Z,19.40
2018-05-23T08:51:10.332Z,19.40
2018-05-23T08:53:37.879Z,19.40
2018-05-23T08:56:05.450Z,19.40
2018-05-23T08:58:32.992Z,19.40
2018-05-23T09:01:00.562Z,19.40
2018-05-23T09:03:28.098Z,19.40
2018-05-23T09:05:55.662Z,19.40
2018-05-23T09:08:23.212Z,19.40
2018-05-23T09:10:50.776Z,19.50
2018-05-23T09:13:18.327Z,19.50
2018-05-23T09:15:45.900Z,19.60
2018-05-23T09:18:13.454Z,19.60
2018-05-23T09:20:41.031Z,19.60
2018-05-23T09:23:08.577Z,19.70
2018-05-23T09:25:36.156Z,19.70
2018-05-23T09:28:03.730Z,19.80
2018-05-23T09:30:31.300Z,19.80
2018-05-23T09:32:58.844Z,19.90
2018-05-23T09:35:26.390Z,20.00
2018-05-23T09:37:53.954Z,20.10
2018-05-23T09:40:21.602Z,20.20
2018-05-23T09:42:49.169Z,20.30
2018-05-23T09:45:16.720Z,20.40
2018-05-23T09:47:45.059Z,20.60
2018-05-23T09:50:12.628Z,20.60
2018-05-23T09:52:40.946Z,20.80
2018-05-23T09:55:08.576Z,20.80
2018-05-23T09:57:36.080Z,21.00
2018-05-23T10:00:03.651Z,21.10
2018-05-23T10:02:31.238Z,21.20
2018-05-23T10:04:58.815Z,21.30
2018-05-23T10:07:27.130Z,21.60
2018-05-23T10:09:54.694Z,21.60
2018-05-23T10:12:22.239Z,21.70
2018-05-23T10:14:49.799Z,21.90
2018-05-23T10:17:17.347Z,22.00
2018-05-23T10:19:44.895Z,22.10
2018-05-23T10:22:13.231Z,22.20
2018-05-23T10:24:40.787Z,22.20
2018-05-23T10:27:08.349Z,22.30
2018-05-23T10:29:35.887Z,22.40
2018-05-23T10:32:03.455Z,22.50
2018-05-23T10:34:30.993Z,22.60
2018-05-23T10:36:58.564Z,22.70
2018-05-23T10:39:26.114Z,22.70
2018-05-23T10:41:53.695Z,22.90
2018-05-23T10:44:21.241Z,22.90
2018-05-23T10:46:48.810Z,23.00
2018-05-23T10:49:16.346Z,23.00
2018-05-23T10:51:44.749Z,23.10
2018-05-23T10:54:13.025Z,23.20
2018-05-23T10:56:40.582Z,23.20
2018-05-23T10:59:08.122Z,23.00
2018-05-23T11:01:36.443Z,23.10
2018-05-23T11:04:03.979Z,23.10
2018-05-23T11:06:31.540Z,23.30
2018-05-23T11:08:59.099Z,23.50
2018-05-23T11:11:26.670Z,23.60
2018-05-23T11:13:54.210Z,23.70
2018-05-23T11:16:21.770Z,23.80
2018-05-23T11:18:49.311Z,23.80
2018-05-23T11:21:17.636Z,23.80
2018-05-23T11:23:45.171Z,23.80
2018-05-23T11:26:12.850Z,24.00
2018-05-23T11:28:41.255Z,24.10
2018-05-23T11:31:08.817Z,23.90
2018-05-23T11:33:36.364Z,23.60
2018-05-23T11:36:03.928Z,23.30
2018-05-23T11:38:31.480Z,23.00
2018-05-23T11:40:59.043Z,22.80
2018-05-23T11:43:26.583Z,22.70
2018-05-23T11:45:54.147Z,22.60
2018-05-23T11:48:21.689Z,22.70
2018-05-23T11:50:49.259Z,23.00
2018-05-23T11:53:16.805Z,23.10
2018-05-23T11:55:44.376Z,23.50
2018-05-23T11:58:11.918Z,23.80
2018-05-23T12:00:40.250Z,24.10
2018-05-23T12:03:07.796Z,24.10
2018-05-23T12:05:35.363Z,24.30
2018-05-23T12:08:02.903Z,24.40
2018-05-23T12:10:30.521Z,24.50
2018-05-23T12:12:58.028Z,24.70
2018-05-23T12:15:25.594Z,24.80
2018-05-23T12:17:53.136Z,24.80
2018-05-23T12:20:20.682Z,24.80
2018-05-23T12:22:48.249Z,24.80
2018-05-23T12:25:15.833Z,24.70
2018-05-23T12:27:43.393Z,24.70
2018-05-23T12:30:10.929Z,24.80
2018-05-23T12:32:38.492Z,24.80
2018-05-23T12:35:06.034Z,24.90
2018-05-23T12:37:34.362Z,24.90
2018-05-23T12:40:01.903Z,24.80
2018-05-23T12:42:29.458Z,24.90
2018-05-23T12:44:56.994Z,24.80
2018-05-23T12:47:25.314Z,24.50
2018-05-23T12:49:52.859Z,24.50
2018-05-23T12:52:20.414Z,24.50
2018-05-23T12:54:47.954Z,24.50
2018-05-23T12:57:16.284Z,23.90
2018-05-23T12:59:43.821Z,23.90
2018-05-23T13:02:11.387Z,23.70
2018-05-23T13:04:38.934Z,23.40
2018-05-23T13:07:06.495Z,23.30
2018-05-23T13:09:34.055Z,23.20
2018-05-23T13:12:01.619Z,23.40
2018-05-23T13:14:29.152Z,23.50
2018-05-23T13:16:57.484Z,23.40
2018-05-23T13:19:25.033Z,23.40
2018-05-23T13:21:53.403Z,23.30
2018-05-23T13:24:20.947Z,23.30
2018-05-23T13:26:48.511Z,23.30
2018-05-23T13:29:16.055Z,23.30
2018-05-23T13:31:43.620Z,23.30
2018-05-23T13:34:11.164Z,23.40
2018-05-23T13:36:39.483Z,23.40
2018-05-23T13:39:07.035Z,23.40
2018-05-23T13:41:34.609Z,23.40
2018-05-23T13:44:02.157Z,23.50
2018-05-23T13:46:29.725Z,23.50
2018-05-23T13:48:57.275Z,23.50
2018-05-23T13:51:24.847Z,23.50
2018-05-23T13:53:52.394Z,23.50
2018-05-23T13:56:19.960Z,23.50
2018-05-23T13:58:47.503Z,23.50
2018-05-23T14:01:15.066Z,23.40
2018-05-23T14:03:42.615Z,23.40
2018-05-23T14:06:10.945Z,23.60
2018-05-23T14:08:38.483Z,23.50
2018-05-23T14:11:06.050Z,23.60
2018-05-23T14:13:33.603Z,23.60
2018-05-23T14:16:01.154Z,23.60
2018-05-23T14:18:29.034Z,23.60
2018-05-23T14:20:56.569Z,23.60
2018-05-23T14:23:24.139Z,23.60
2018-05-23T14:25:52.444Z,23.60
2018-05-23T14:28:20.004Z,23.50
2018-05-23T14:30:47.964Z,23.50
2018-05-23T14:33:15.826Z,23.60
2018-05-23T14:35:43.441Z,23.50
2018-05-23T14:38:11.793Z,23.50
2018-05-23T14:40:39.333Z,23.50
2018-05-23T14:43:06.991Z,23.50
2018-05-23T14:45:34.525Z,23.50
2018-05-23T14:48:02.086Z,23.50
2018-05-23T14:50:29.618Z,23.50
2018-05-23T14:52:57.179Z,23.50
2018-05-23T14:55:24.715Z,23.50
2018-05-23T14:57:52.271Z,23.50
2018-05-23T15:00:19.814Z,23.50
2018-05-23T15:02:47.384Z,23.40
2018-05-23T15:05:14.918Z,23.40
2018-05-23T15:07:42.479Z,23.40
2018-05-23T15:10:10.015Z,23.40
2018-05-23T15:12:38.339Z,23.40
2018-05-23T15:15:05.875Z,23.40
2018-05-23T15:17:33.442Z,23.40
2018-05-23T15:20:01.090Z,23.40
2018-05-23T15:22:28.626Z,23.30
2018-05-23T15:24:56.940Z,23.30
2018-05-23T15:27:24.508Z,23.30
2018-05-23T15:29:52.047Z,23.30
2018-05-23T15:32:19.611Z,23.30
2018-05-23T15:34:47.163Z,23.30
2018-05-23T15:37:14.729Z,23.20
2018-05-23T15:39:42.266Z,23.20
2018-05-23T15:42:10.603Z,23.20
2018-05-23T15:44:38.135Z,23.20
2018-05-23T15:47:05.699Z,23.20
2018-05-23T15:49:33.231Z,23.20
2018-05-23T15:52:01.554Z,23.10
2018-05-23T15:54:29.091Z,23.10
2018-05-23T15:56:56.663Z,23.10
2018-05-23T15:59:24.206Z,23.10
2018-05-23T16:01:51.772Z,23.10
2018-05-23T16:04:19.307Z,23.10
2018-05-23T16:06:47.638Z,23.10
2018-05-23T16:09:15.242Z,23.10
2018-05-23T16:11:42.761Z,23.10
2018-05-23T16:14:10.504Z,23.10
2018-05-23T16:16:38.049Z,23.10
2018-05-23T16:19:05.607Z,23.10
2018-05-23T16:21:33.154Z,23.10
2018-05-23T16:24:01.486Z,23.10
2018-05-23T16:26:29.020Z,23.10
2018-05-23T16:28:56.583Z,23.10
2018-05-23T16:31:24.115Z,23.10
2018-05-23T16:33:52.437Z,23.00
2018-05-23T16:36:19.972Z,23.00
2018-05-23T16:38:47.548Z,23.00
2018-05-23T16:41:15.087Z,23.00
2018-05-23T16:43:42.648Z,23.00
2018-05-23T16:46:10.195Z,23.00
2018-05-23T16:48:38.522Z,23.00
2018-05-23T16:51:06.074Z,23.00
2018-05-23T16:53:33.635Z,22.90
2018-05-23T16:56:01.174Z,23.00
2018-05-23T16:58:28.739Z,22.90
2018-05-23T17:00:56.283Z,22.90
2018-05-23T17:03:23.839Z,22.90
2018-05-23T17:05:51.381Z,22.90
2018-05-23T17:08:19.699Z,22.90
2018-05-23T17:10:47.237Z,22.90
2018-05-23T17:13:14.789Z,22.90
2018-05-23T17:15:43.102Z,25.60
2018-05-23T17:18:10.662Z,25.60
2018-05-23T17:20:38.228Z,26.30
2018-05-23T17:23:05.791Z,26.60
2018-05-23T17:25:33.333Z,26.80
2018-05-23T17:28:00.891Z,26.90
2018-05-23T17:30:28.434Z,27.00
2018-05-23T17:32:56.002Z,27.00
2018-05-23T17:35:23.538Z,27.00
2018-05-23T17:37:51.870Z,27.00
2018-05-23T17:40:19.471Z,27.00
2018-05-23T17:42:46.983Z,27.00
2018-05-23T17:45:14.543Z,27.00
2018-05-23T17:47:42.103Z,27.00
2018-05-23T17:50:09.658Z,26.90
2018-05-23T17:52:37.219Z,27.00
2018-05-23T17:55:04.760Z,26.90
2018-05-23T17:57:32.322Z,26.90
2018-05-23T17:59:59.855Z,26.90
2018-05-23T18:02:28.182Z,26.90
2018-05-23T18:04:55.716Z,26.80
2018-05-23T18:07:23.259Z,26.80
2018-05-23T18:09:51.596Z,26.80
2018-05-23T18:12:19.183Z,26.70
2018-05-23T18:14:46.744Z,26.70
2018-05-23T18:17:14.280Z,26.70
2018-05-23T18:19:41.846Z,26.70
2018-05-23T18:22:09.383Z,26.60
2018-05-23T18:24:36.956Z,26.60
2018-05-23T18:27:04.599Z,26.60
2018-05-23T18:29:32.218Z,26.60
2018-05-23T18:31:59.723Z,26.60
2018-05-23T18:34:27.285Z,26.60
2018-05-23T18:36:54.827Z,26.50
2018-05-23T18:39:22.400Z,26.50
2018-05-23T18:41:49.951Z,26.50
2018-05-23T18:44:17.624Z,26.50
2018-05-23T18:46:45.163Z,26.40
2018-05-23T18:49:12.723Z,26.40
2018-05-23T18:51:40.266Z,26.30
2018-05-23T18:54:08.592Z,26.30
2018-05-23T18:56:36.151Z,26.30
2018-05-23T18:59:04.186Z,26.30
2018-05-23T19:01:32.486Z,26.10
2018-05-23T19:04:00.108Z,26.10
2018-05-23T19:06:28.419Z,26.00
2018-05-23T19:08:56.520Z,26.00
2018-05-23T19:11:24.186Z,26.00
2018-05-23T19:13:51.975Z,25.90
2018-05-23T19:16:19.491Z,25.80
2018-05-23T19:18:47.067Z,25.80
2018-05-23T19:21:14.631Z,25.80
2018-05-23T19:23:42.503Z,25.80
2018-05-23T19:26:10.066Z,25.70
2018-05-23T19:28:37.630Z,25.70
2018-05-23T19:31:05.165Z,25.70
2018-05-23T19:33:32.745Z,25.60
2018-05-23T19:36:00.313Z,25.50
2018-05-23T19:38:27.887Z,25.50
2018-05-23T19:40:55.423Z,25.50
2018-05-23T19:43:22.984Z,25.50
2018-05-23T19:45:50.522Z,25.40
2018-05-23T19:48:18.103Z,25.40
2018-05-23T19:50:45.649Z,25.30
2018-05-23T19:53:13.217Z,25.30
2018-05-23T19:55:40.762Z,25.30
2018-05-23T19:58:08.322Z,25.20
2018-05-23T20:00:35.866Z,25.20
2018-05-23T20:03:03.443Z,25.10
2018-05-23T20:05:30.983Z,25.10
2018-05-23T20:07:58.582Z,25.10
2018-05-23T20:10:26.126Z,25.00
2018-05-23T20:12:53.660Z,25.00
2018-05-23T20:15:21.214Z,24.90
2018-05-23T20:17:49.521Z,24.80
2018-05-23T20:20:17.091Z,24.80
2018-05-23T20:22:44.632Z,24.80
2018-05-23T20:25:12.191Z,24.80
2018-05-23T20:27:39.739Z,24.70
2018-05-23T20:30:07.307Z,24.70
2018-05-23T20:32:34.843Z,24.70
2018-05-23T20:35:03.174Z,24.60
2018-05-23T20:37:30.716Z,24.60
2018-05-23T20:39:58.292Z,24.50
2018-05-23T20:42:25.841Z,24.50
2018-05-23T20:44:53.416Z,24.50
2018-05-23T20:47:20.961Z,24.40
2018-05-23T20:49:48.531Z,24.40
2018-05-23T20:52:16.073Z,24.40
2018-05-23T20:54:43.638Z,24.30
2018-05-23T20:57:11.168Z,24.30
2018-05-23T20:59:39.498Z,24.20
2018-05-23T21:02:07.034Z,24.20
2018-05-23T21:04:34.608Z,24.20
2018-05-23T21:07:02.145Z,24.20
2018-05-23T21:09:29.697Z,24.20
2018-05-23T21:11:57.243Z,24.10
2018-05-23T21:14:25.587Z,24.10
2018-05-23T21:16:53.126Z,24.00
2018-05-23T21:19:20.707Z,24.00
2018-05-23T21:21:48.246Z,24.00
2018-05-23T21:24:15.811Z,23.90
2018-05-23T21:26:43.346Z,23.90
2018-05-23T21:29:10.907Z,23.80
2018-05-23T21:31:38.442Z,23.80
2018-05-23T21:34:06.767Z,23.80
2018-05-23T21:36:34.312Z,23.80
2018-05-23T21:39:01.982Z,23.70
2018-05-23T21:41:29.523Z,23.70
2018-05-23T21:43:57.080Z,23.70
2018-05-23T21:46:24.623Z,23.70
2018-05-23T21:48:52.946Z,23.60
2018-05-23T21:51:20.474Z,23.50
2018-05-23T21:53:48.804Z,23.50
2018-05-23T21:56:16.346Z,23.50
2018-05-23T21:58:43.913Z,23.50
2018-05-23T22:01:13.386Z,23.50
2018-05-23T22:03:40.944Z,23.40
2018-05-23T22:06:08.478Z,23.40
2018-05-23T22:08:36.787Z,23.30
2018-05-23T22:11:04.349Z,23.30
2018-05-23T22:13:31.883Z,23.30
2018-05-23T22:16:00.206Z,23.30
2018-05-23T22:18:27.739Z,23.30
2018-05-23T22:20:55.301Z,23.30
2018-05-23T22:23:22.842Z,23.20
2018-05-23T22:25:51.161Z,23.10
2018-05-23T22:28:18.710Z,23.20
2018-05-23T22:30:46.271Z,23.10
2018-05-23T22:33:13.811Z,23.10
2018-05-23T22:35:41.377Z,23.10
2018-05-23T22:38:08.923Z,23.00
2018-05-23T22:40:37.255Z,23.00
2018-05-23T22:43:04.794Z,23.00
2018-05-23T22:45:32.356Z,23.00
2018-05-23T22:47:59.891Z,22.90
2018-05-23T22:50:27.452Z,22.90
2018-05-23T22:52:55.036Z,22.80
2018-05-23T22:55:22.609Z,22.80
2018-05-23T22:57:50.148Z,22.80
2018-05-23T23:00:21.422Z,22.80
2018-05-23T23:02:48.967Z,22.80
2018-05-23T23:05:16.527Z,22.70
2018-05-23T23:07:44.061Z,22.70
2018-05-23T23:10:11.631Z,22.70
2018-05-23T23:12:39.173Z,22.60
2018-05-23T23:15:07.511Z,22.60
2018-05-23T23:17:35.053Z,22.60
2018-05-23T23:20:02.591Z,22.60
2018-05-23T23:22:38.866Z,22.50
2018-05-23T23:25:06.413Z,22.50
2018-05-23T23:27:33.972Z,22.50
2018-05-23T23:30:01.514Z,22.50
2018-05-23T23:32:29.843Z,22.40
2018-05-23T23:34:57.383Z,22.40
2018-05-23T23:37:24.946Z,22.40
2018-05-23T23:39:52.486Z,22.40
2018-05-23T23:42:20.059Z,22.40
2018-05-23T23:44:47.598Z,22.30
2018-05-23T23:47:15.924Z,22.30
2018-05-23T23:49:43.473Z,22.30
2018-05-23T23:52:11.026Z,22.20
2018-05-23T23:54:38.651Z,22.20
2018-05-23T23:57:06.174Z,22.20
2018-05-23T23:59:33.710Z,22.20
